sensor_id;sensor_type;location;lat;lon;timestamp;P1;durP1;ratioP1;P2;durP2;ratioP2
19436;SDS011;9854;50.968;4.168;2024-03-02T00:02:25;2.70;;;0.90;;
19436;SDS011;9854;50.968;4.168;2024-03-02T00:04:51;0.93;;;0.80;;
19436;SDS011;9854;50.968;4.168;2024-03-02T00:07:16;0.90;;;0.90;;
19436;SDS011;9854;50.968;4.168;2024-03-02T00:09:42;1.37;;;0.90;;
19436;SDS011;9854;50.968;4.168;2024-03-02T00:12:10;2.27;;;1.00;;
19436;SDS011;9854;50.968;4.168;2024-03-02T00:14:40;2.13;;;0.90;;
19436;SDS011;9854;50.968;4.168;2024-03-02T00:17:08;1.27;;;1.00;;
19436;SDS011;9854;50.968;4.168;2024-03-02T00:19:45;1.43;;;1.13;;
19436;SDS011;9854;50.968;4.168;2024-03-02T00:22:10;3.80;;;1.10;;
19436;SDS011;9854;50.968;4.168;2024-03-02T00:24:39;1.53;;;1.27;;
19436;SDS011;9854;50.968;4.168;2024-03-02T00:27:05;1.60;;;1.40;;
19436;SDS011;9854;50.968;4.168;2024-03-02T00:29:32;3.23;;;1.20;;
19436;SDS011;9854;50.968;4.168;2024-03-02T00:31:59;1.73;;;1.17;;
19436;SDS011;9854;50.968;4.168;2024-03-02T00:34:26;2.67;;;1.20;;
19436;SDS011;9854;50.968;4.168;2024-03-02T00:36:52;2.20;;;1.20;;
19436;SDS011;9854;50.968;4.168;2024-03-02T00:39:17;2.87;;;1.30;;
19436;SDS011;9854;50.968;4.168;2024-03-02T00:41:43;4.40;;;1.40;;
19436;SDS011;9854;50.968;4.168;2024-03-02T00:44:12;1.43;;;1.33;;
19436;SDS011;9854;50.968;4.168;2024-03-02T00:46:40;2.67;;;1.50;;
19436;SDS011;9854;50.968;4.168;2024-03-02T00:49:12;1.57;;;1.33;;
19436;SDS011;9854;50.968;4.168;2024-03-02T00:51:41;2.03;;;1.00;;
19436;SDS011;9854;50.968;4.168;2024-03-02T00:54:13;2.00;;;1.13;;
19436;SDS011;9854;50.968;4.168;2024-03-02T00:56:40;2.03;;;1.10;;
19436;SDS011;9854;50.968;4.168;2024-03-02T00:59:07;3.00;;;1.00;;
19436;SDS011;9854;50.968;4.168;2024-03-02T01:01:33;1.53;;;1.03;;
19436;SDS011;9854;50.968;4.168;2024-03-02T01:03:59;1.10;;;0.90;;
19436;SDS011;9854;50.968;4.168;2024-03-02T01:06:29;2.57;;;1.07;;
19436;SDS011;9854;50.968;4.168;2024-03-02T01:08:55;0.80;;;0.80;;
19436;SDS011;9854;50.968;4.168;2024-03-02T01:11:21;1.00;;;0.90;;
19436;SDS011;9854;50.968;4.168;2024-03-02T01:13:48;1.00;;;0.90;;
19436;SDS011;9854;50.968;4.168;2024-03-02T01:16:14;1.57;;;0.77;;
19436;SDS011;9854;50.968;4.168;2024-03-02T01:18:40;0.70;;;0.70;;
19436;SDS011;9854;50.968;4.168;2024-03-02T01:21:07;1.37;;;0.70;;
19436;SDS011;9854;50.968;4.168;2024-03-02T01:23:35;1.33;;;1.00;;
19436;SDS011;9854;50.968;4.168;2024-03-02T01:26:00;0.77;;;0.70;;
19436;SDS011;9854;50.968;4.168;2024-03-02T01:28:26;0.60;;;0.60;;
19436;SDS011;9854;50.968;4.168;2024-03-02T01:30:52;2.57;;;0.90;;
19436;SDS011;9854;50.968;4.168;2024-03-02T01:33:19;0.80;;;0.80;;
19436;SDS011;9854;50.968;4.168;2024-03-02T01:35:47;1.00;;;0.90;;
19436;SDS011;9854;50.968;4.168;2024-03-02T01:38:12;0.97;;;0.90;;
19436;SDS011;9854;50.968;4.168;2024-03-02T01:40:38;0.70;;;0.70;;
19436;SDS011;9854;50.968;4.168;2024-03-02T01:43:05;1.03;;;0.83;;
19436;SDS011;9854;50.968;4.168;2024-03-02T01:45:31;1.07;;;0.90;;
19436;SDS011;9854;50.968;4.168;2024-03-02T01:47:57;2.67;;;0.83;;
19436;SDS011;9854;50.968;4.168;2024-03-02T01:50:31;1.13;;;1.00;;
19436;SDS011;9854;50.968;4.168;2024-03-02T01:52:57;2.83;;;1.13;;
19436;SDS011;9854;50.968;4.168;2024-03-02T01:55:26;1.70;;;1.30;;
19436;SDS011;9854;50.968;4.168;2024-03-02T01:57:54;1.27;;;1.10;;
19436;SDS011;9854;50.968;4.168;2024-03-02T02:00:20;2.13;;;1.10;;
19436;SDS011;9854;50.968;4.168;2024-03-02T02:02:46;1.70;;;1.00;;
19436;SDS011;9854;50.968;4.168;2024-03-02T02:05:15;3.03;;;1.10;;
19436;SDS011;9854;50.968;4.168;2024-03-02T02:07:43;2.10;;;1.30;;
19436;SDS011;9854;50.968;4.168;2024-03-02T02:10:11;0.93;;;0.90;;
19436;SDS011;9854;50.968;4.168;2024-03-02T02:12:38;2.97;;;1.20;;
19436;SDS011;9854;50.968;4.168;2024-03-02T02:15:04;1.43;;;1.03;;
19436;SDS011;9854;50.968;4.168;2024-03-02T02:17:47;2.77;;;1.20;;
19436;SDS011;9854;50.968;4.168;2024-03-02T02:20:13;2.73;;;1.27;;
19436;SDS011;9854;50.968;4.168;2024-03-02T02:22:38;3.47;;;1.50;;
19436;SDS011;9854;50.968;4.168;2024-03-02T02:25:07;1.63;;;1.00;;
19436;SDS011;9854;50.968;4.168;2024-03-02T02:27:35;2.40;;;1.20;;
19436;SDS011;9854;50.968;4.168;2024-03-02T02:30:00;1.07;;;0.93;;
19436;SDS011;9854;50.968;4.168;2024-03-02T02:32:28;2.00;;;1.23;;
19436;SDS011;9854;50.968;4.168;2024-03-02T02:34:56;2.00;;;1.20;;
19436;SDS011;9854;50.968;4.168;2024-03-02T02:37:24;2.90;;;0.87;;
19436;SDS011;9854;50.968;4.168;2024-03-02T02:39:49;3.40;;;1.13;;
19436;SDS011;9854;50.968;4.168;2024-03-02T02:42:15;2.43;;;1.17;;
19436;SDS011;9854;50.968;4.168;2024-03-02T02:44:40;2.27;;;1.00;;
19436;SDS011;9854;50.968;4.168;2024-03-02T02:47:06;2.13;;;1.20;;
19436;SDS011;9854;50.968;4.168;2024-03-02T02:49:34;1.97;;;1.10;;
19436;SDS011;9854;50.968;4.168;2024-03-02T02:52:00;3.23;;;1.30;;
19436;SDS011;9854;50.968;4.168;2024-03-02T02:54:25;3.27;;;1.10;;
19436;SDS011;9854;50.968;4.168;2024-03-02T02:56:51;3.10;;;1.20;;
19436;SDS011;9854;50.968;4.168;2024-03-02T02:59:19;1.97;;;1.10;;
19436;SDS011;9854;50.968;4.168;2024-03-02T03:01:44;1.73;;;1.30;;
19436;SDS011;9854;50.968;4.168;2024-03-02T03:04:10;2.43;;;1.10;;
19436;SDS011;9854;50.968;4.168;2024-03-02T03:06:36;6.07;;;1.20;;
19436;SDS011;9854;50.968;4.168;2024-03-02T03:09:01;4.07;;;1.10;;
19436;SDS011;9854;50.968;4.168;2024-03-02T03:11:29;3.03;;;1.30;;
19436;SDS011;9854;50.968;4.168;2024-03-02T03:13:55;4.70;;;1.37;;
19436;SDS011;9854;50.968;4.168;2024-03-02T03:16:21;2.57;;;1.23;;
19436;SDS011;9854;50.968;4.168;2024-03-02T03:18:46;3.40;;;1.20;;
19436;SDS011;9854;50.968;4.168;2024-03-02T03:21:16;3.03;;;1.30;;
19436;SDS011;9854;50.968;4.168;2024-03-02T03:23:41;2.87;;;1.00;;
19436;SDS011;9854;50.968;4.168;2024-03-02T03:26:10;2.30;;;1.17;;
19436;SDS011;9854;50.968;4.168;2024-03-02T03:28:35;3.67;;;1.10;;
19436;SDS011;9854;50.968;4.168;2024-03-02T03:31:01;3.80;;;1.20;;
19436;SDS011;9854;50.968;4.168;2024-03-02T03:33:27;4.97;;;1.30;;
19436;SDS011;9854;50.968;4.168;2024-03-02T03:35:53;2.77;;;1.17;;
19436;SDS011;9854;50.968;4.168;2024-03-02T03:38:20;3.87;;;1.00;;
19436;SDS011;9854;50.968;4.168;2024-03-02T03:40:46;2.43;;;1.10;;
19436;SDS011;9854;50.968;4.168;2024-03-02T03:43:15;2.30;;;1.20;;
19436;SDS011;9854;50.968;4.168;2024-03-02T03:45:43;4.17;;;1.20;;
19436;SDS011;9854;50.968;4.168;2024-03-02T03:48:08;3.77;;;1.10;;
19436;SDS011;9854;50.968;4.168;2024-03-02T03:50:34;6.13;;;1.03;;
19436;SDS011;9854;50.968;4.168;2024-03-02T03:52:59;1.73;;;0.97;;
19436;SDS011;9854;50.968;4.168;2024-03-02T03:55:25;2.97;;;1.10;;
19436;SDS011;9854;50.968;4.168;2024-03-02T03:57:53;2.57;;;1.10;;
19436;SDS011;9854;50.968;4.168;2024-03-02T04:00:19;1.97;;;1.13;;
19436;SDS011;9854;50.968;4.168;2024-03-02T04:02:44;3.93;;;1.00;;
19436;SDS011;9854;50.968;4.168;2024-03-02T04:05:10;2.10;;;1.10;;
19436;SDS011;9854;50.968;4.168;2024-03-02T04:07:36;4.17;;;1.23;;
19436;SDS011;9854;50.968;4.168;2024-03-02T04:10:08;4.60;;;1.47;;
19436;SDS011;9854;50.968;4.168;2024-03-02T04:12:38;4.23;;;1.60;;
19436;SDS011;9854;50.968;4.168;2024-03-02T04:15:07;2.77;;;1.23;;
19436;SDS011;9854;50.968;4.168;2024-03-02T04:17:33;4.33;;;1.47;;
19436;SDS011;9854;50.968;4.168;2024-03-02T04:20:00;4.70;;;1.20;;
19436;SDS011;9854;50.968;4.168;2024-03-02T04:22:34;3.17;;;1.17;;
19436;SDS011;9854;50.968;4.168;2024-03-02T04:25:01;1.97;;;1.20;;
19436;SDS011;9854;50.968;4.168;2024-03-02T04:27:27;3.60;;;1.53;;
19436;SDS011;9854;50.968;4.168;2024-03-02T04:29:53;3.83;;;1.20;;
19436;SDS011;9854;50.968;4.168;2024-03-02T04:32:18;4.83;;;1.57;;
19436;SDS011;9854;50.968;4.168;2024-03-02T04:34:44;1.67;;;1.17;;
19436;SDS011;9854;50.968;4.168;2024-03-02T04:37:10;6.83;;;1.40;;
19436;SDS011;9854;50.968;4.168;2024-03-02T04:39:37;4.90;;;1.47;;
19436;SDS011;9854;50.968;4.168;2024-03-02T04:42:03;6.00;;;1.40;;
19436;SDS011;9854;50.968;4.168;2024-03-02T04:44:31;4.93;;;1.57;;
19436;SDS011;9854;50.968;4.168;2024-03-02T04:46:57;2.33;;;1.20;;
19436;SDS011;9854;50.968;4.168;2024-03-02T04:49:23;5.27;;;1.60;;
19436;SDS011;9854;50.968;4.168;2024-03-02T04:51:48;2.70;;;1.50;;
19436;SDS011;9854;50.968;4.168;2024-03-02T04:54:18;6.23;;;1.40;;
19436;SDS011;9854;50.968;4.168;2024-03-02T04:56:44;3.67;;;1.60;;
19436;SDS011;9854;50.968;4.168;2024-03-02T04:59:14;5.07;;;1.70;;
19436;SDS011;9854;50.968;4.168;2024-03-02T05:01:43;5.03;;;1.67;;
19436;SDS011;9854;50.968;4.168;2024-03-02T05:04:09;2.83;;;1.30;;
19436;SDS011;9854;50.968;4.168;2024-03-02T05:06:39;2.53;;;1.40;;
19436;SDS011;9854;50.968;4.168;2024-03-02T05:09:05;5.33;;;1.40;;
19436;SDS011;9854;50.968;4.168;2024-03-02T05:11:31;5.10;;;1.60;;
19436;SDS011;9854;50.968;4.168;2024-03-02T05:14:05;4.17;;;1.30;;
19436;SDS011;9854;50.968;4.168;2024-03-02T05:16:35;3.13;;;1.57;;
19436;SDS011;9854;50.968;4.168;2024-03-02T05:19:03;2.97;;;1.37;;
19436;SDS011;9854;50.968;4.168;2024-03-02T05:21:31;5.50;;;1.50;;
19436;SDS011;9854;50.968;4.168;2024-03-02T05:24:01;8.60;;;1.73;;
19436;SDS011;9854;50.968;4.168;2024-03-02T05:26:27;3.97;;;1.50;;
19436;SDS011;9854;50.968;4.168;2024-03-02T05:28:53;5.07;;;1.13;;
19436;SDS011;9854;50.968;4.168;2024-03-02T05:31:21;5.00;;;1.30;;
19436;SDS011;9854;50.968;4.168;2024-03-02T05:33:49;5.10;;;1.70;;
19436;SDS011;9854;50.968;4.168;2024-03-02T05:36:17;3.17;;;1.47;;
19436;SDS011;9854;50.968;4.168;2024-03-02T05:38:43;6.83;;;2.23;;
19436;SDS011;9854;50.968;4.168;2024-03-02T05:41:08;4.30;;;1.30;;
19436;SDS011;9854;50.968;4.168;2024-03-02T05:43:37;6.20;;;1.40;;
19436;SDS011;9854;50.968;4.168;2024-03-02T05:46:02;4.43;;;1.37;;
19436;SDS011;9854;50.968;4.168;2024-03-02T05:48:30;5.87;;;1.53;;
19436;SDS011;9854;50.968;4.168;2024-03-02T05:50:56;4.60;;;1.33;;
19436;SDS011;9854;50.968;4.168;2024-03-02T05:53:21;4.23;;;1.33;;
19436;SDS011;9854;50.968;4.168;2024-03-02T05:55:49;6.83;;;1.50;;
19436;SDS011;9854;50.968;4.168;2024-03-02T05:58:22;6.67;;;2.13;;
19436;SDS011;9854;50.968;4.168;2024-03-02T06:01:02;4.63;;;1.70;;
19436;SDS011;9854;50.968;4.168;2024-03-02T06:03:29;8.27;;;2.17;;
19436;SDS011;9854;50.968;4.168;2024-03-02T06:05:55;8.37;;;2.57;;
19436;SDS011;9854;50.968;4.168;2024-03-02T06:08:21;5.20;;;1.97;;
19436;SDS011;9854;50.968;4.168;2024-03-02T06:10:46;6.47;;;1.80;;
19436;SDS011;9854;50.968;4.168;2024-03-02T06:13:12;6.67;;;1.93;;
19436;SDS011;9854;50.968;4.168;2024-03-02T06:15:37;3.93;;;1.43;;
19436;SDS011;9854;50.968;4.168;2024-03-02T06:18:03;10.30;;;2.00;;
19436;SDS011;9854;50.968;4.168;2024-03-02T06:20:29;5.00;;;1.90;;
19436;SDS011;9854;50.968;4.168;2024-03-02T06:22:56;5.60;;;1.70;;
19436;SDS011;9854;50.968;4.168;2024-03-02T06:25:24;8.70;;;2.00;;
19436;SDS011;9854;50.968;4.168;2024-03-02T06:27:52;8.63;;;1.83;;
19436;SDS011;9854;50.968;4.168;2024-03-02T06:30:17;5.77;;;1.63;;
19436;SDS011;9854;50.968;4.168;2024-03-02T06:32:43;6.70;;;2.00;;
19436;SDS011;9854;50.968;4.168;2024-03-02T06:35:11;4.20;;;1.70;;
19436;SDS011;9854;50.968;4.168;2024-03-02T06:37:37;7.13;;;1.80;;
19436;SDS011;9854;50.968;4.168;2024-03-02T06:40:09;5.83;;;1.80;;
19436;SDS011;9854;50.968;4.168;2024-03-02T06:42:38;10.20;;;1.80;;
19436;SDS011;9854;50.968;4.168;2024-03-02T06:45:04;8.50;;;2.23;;
19436;SDS011;9854;50.968;4.168;2024-03-02T06:47:30;3.40;;;1.53;;
19436;SDS011;9854;50.968;4.168;2024-03-02T06:49:58;4.53;;;1.47;;
19436;SDS011;9854;50.968;4.168;2024-03-02T06:52:24;4.37;;;1.60;;
19436;SDS011;9854;50.968;4.168;2024-03-02T06:54:50;7.93;;;1.63;;
19436;SDS011;9854;50.968;4.168;2024-03-02T06:57:15;8.77;;;2.10;;
19436;SDS011;9854;50.968;4.168;2024-03-02T06:59:42;7.77;;;2.23;;
19436;SDS011;9854;50.968;4.168;2024-03-02T07:02:07;7.97;;;2.53;;
19436;SDS011;9854;50.968;4.168;2024-03-02T07:04:33;5.07;;;1.97;;
19436;SDS011;9854;50.968;4.168;2024-03-02T07:06:59;3.37;;;1.50;;
19436;SDS011;9854;50.968;4.168;2024-03-02T07:09:25;6.87;;;2.30;;
19436;SDS011;9854;50.968;4.168;2024-03-02T07:11:51;8.33;;;2.10;;
19436;SDS011;9854;50.968;4.168;2024-03-02T07:14:18;8.53;;;1.90;;
19436;SDS011;9854;50.968;4.168;2024-03-02T07:16:44;9.03;;;2.37;;
19436;SDS011;9854;50.968;4.168;2024-03-02T07:19:12;6.80;;;1.90;;
19436;SDS011;9854;50.968;4.168;2024-03-02T07:21:38;3.93;;;1.67;;
19436;SDS011;9854;50.968;4.168;2024-03-02T07:24:04;9.13;;;2.20;;
19436;SDS011;9854;50.968;4.168;2024-03-02T07:26:30;4.03;;;1.40;;
19436;SDS011;9854;50.968;4.168;2024-03-02T07:28:56;9.53;;;1.83;;
19436;SDS011;9854;50.968;4.168;2024-03-02T07:31:22;6.07;;;1.87;;
19436;SDS011;9854;50.968;4.168;2024-03-02T07:33:48;11.23;;;2.07;;
19436;SDS011;9854;50.968;4.168;2024-03-02T07:36:13;9.03;;;2.03;;
19436;SDS011;9854;50.968;4.168;2024-03-02T07:38:42;12.97;;;2.20;;
19436;SDS011;9854;50.968;4.168;2024-03-02T07:41:09;10.07;;;2.63;;
19436;SDS011;9854;50.968;4.168;2024-03-02T07:43:36;11.00;;;2.77;;
19436;SDS011;9854;50.968;4.168;2024-03-02T07:46:02;11.40;;;2.57;;
19436;SDS011;9854;50.968;4.168;2024-03-02T07:48:28;7.90;;;1.87;;
19436;SDS011;9854;50.968;4.168;2024-03-02T07:50:54;9.83;;;1.80;;
19436;SDS011;9854;50.968;4.168;2024-03-02T07:53:19;7.53;;;2.00;;
19436;SDS011;9854;50.968;4.168;2024-03-02T07:55:47;6.67;;;1.90;;
19436;SDS011;9854;50.968;4.168;2024-03-02T07:58:13;14.30;;;2.33;;
19436;SDS011;9854;50.968;4.168;2024-03-02T08:00:39;8.90;;;2.33;;
19436;SDS011;9854;50.968;4.168;2024-03-02T08:03:05;7.27;;;1.90;;
19436;SDS011;9854;50.968;4.168;2024-03-02T08:05:31;11.60;;;2.50;;
19436;SDS011;9854;50.968;4.168;2024-03-02T08:07:57;10.67;;;2.20;;
19436;SDS011;9854;50.968;4.168;2024-03-02T08:10:23;7.80;;;2.20;;
19436;SDS011;9854;50.968;4.168;2024-03-02T08:12:48;10.97;;;2.40;;
19436;SDS011;9854;50.968;4.168;2024-03-02T08:15:14;6.73;;;2.77;;
19436;SDS011;9854;50.968;4.168;2024-03-02T08:17:40;10.40;;;2.13;;
19436;SDS011;9854;50.968;4.168;2024-03-02T08:20:15;9.73;;;2.43;;
19436;SDS011;9854;50.968;4.168;2024-03-02T08:22:44;8.97;;;2.10;;
19436;SDS011;9854;50.968;4.168;2024-03-02T08:25:12;10.17;;;2.27;;
19436;SDS011;9854;50.968;4.168;2024-03-02T08:27:39;10.17;;;2.60;;
19436;SDS011;9854;50.968;4.168;2024-03-02T08:30:05;7.67;;;2.43;;
19436;SDS011;9854;50.968;4.168;2024-03-02T08:32:35;5.07;;;2.27;;
19436;SDS011;9854;50.968;4.168;2024-03-02T08:35:01;10.60;;;2.40;;
19436;SDS011;9854;50.968;4.168;2024-03-02T08:37:26;10.33;;;2.40;;
19436;SDS011;9854;50.968;4.168;2024-03-02T08:39:52;7.80;;;2.30;;
19436;SDS011;9854;50.968;4.168;2024-03-02T08:42:18;9.23;;;2.37;;
19436;SDS011;9854;50.968;4.168;2024-03-02T08:44:46;6.30;;;1.90;;
19436;SDS011;9854;50.968;4.168;2024-03-02T08:47:11;11.30;;;2.83;;
19436;SDS011;9854;50.968;4.168;2024-03-02T08:49:37;11.20;;;2.60;;
19436;SDS011;9854;50.968;4.168;2024-03-02T08:52:03;11.07;;;2.73;;
19436;SDS011;9854;50.968;4.168;2024-03-02T08:54:32;9.97;;;2.53;;
19436;SDS011;9854;50.968;4.168;2024-03-02T08:56:58;8.03;;;2.37;;
19436;SDS011;9854;50.968;4.168;2024-03-02T08:59:24;8.37;;;2.30;;
19436;SDS011;9854;50.968;4.168;2024-03-02T09:01:52;13.03;;;2.70;;
19436;SDS011;9854;50.968;4.168;2024-03-02T09:04:18;5.90;;;2.20;;
19436;SDS011;9854;50.968;4.168;2024-03-02T09:06:46;7.60;;;2.00;;
19436;SDS011;9854;50.968;4.168;2024-03-02T09:09:12;8.13;;;2.27;;
19436;SDS011;9854;50.968;4.168;2024-03-02T09:11:37;8.10;;;2.50;;
19436;SDS011;9854;50.968;4.168;2024-03-02T09:14:03;9.57;;;2.60;;
19436;SDS011;9854;50.968;4.168;2024-03-02T09:16:30;10.70;;;2.50;;
19436;SDS011;9854;50.968;4.168;2024-03-02T09:18:58;6.17;;;2.07;;
19436;SDS011;9854;50.968;4.168;2024-03-02T09:21:23;9.93;;;2.50;;
19436;SDS011;9854;50.968;4.168;2024-03-02T09:23:50;8.40;;;2.43;;
19436;SDS011;9854;50.968;4.168;2024-03-02T09:26:18;9.05;;;3.03;;
19436;SDS011;9854;50.968;4.168;2024-03-02T09:28:45;8.90;;;2.42;;
19436;SDS011;9854;50.968;4.168;2024-03-02T09:31:11;7.13;;;2.40;;
19436;SDS011;9854;50.968;4.168;2024-03-02T09:33:39;9.05;;;2.88;;
19436;SDS011;9854;50.968;4.168;2024-03-02T09:36:05;6.18;;;2.17;;
19436;SDS011;9854;50.968;4.168;2024-03-02T09:38:34;7.70;;;2.47;;
19436;SDS011;9854;50.968;4.168;2024-03-02T09:41:00;10.50;;;2.63;;
19436;SDS011;9854;50.968;4.168;2024-03-02T09:43:26;7.20;;;2.50;;
19436;SDS011;9854;50.968;4.168;2024-03-02T09:45:54;7.68;;;2.58;;
19436;SDS011;9854;50.968;4.168;2024-03-02T09:48:22;10.43;;;2.60;;
19436;SDS011;9854;50.968;4.168;2024-03-02T09:50:48;8.48;;;2.30;;
19436;SDS011;9854;50.968;4.168;2024-03-02T09:53:14;7.85;;;2.05;;
19436;SDS011;9854;50.968;4.168;2024-03-02T09:55:40;6.93;;;2.47;;
19436;SDS011;9854;50.968;4.168;2024-03-02T09:58:08;11.23;;;2.72;;
19436;SDS011;9854;50.968;4.168;2024-03-02T10:00:34;10.77;;;2.22;;
19436;SDS011;9854;50.968;4.168;2024-03-02T10:03:02;7.68;;;1.95;;
19436;SDS011;9854;50.968;4.168;2024-03-02T10:05:31;10.25;;;2.72;;
19436;SDS011;9854;50.968;4.168;2024-03-02T10:08:00;8.55;;;2.25;;
19436;SDS011;9854;50.968;4.168;2024-03-02T10:10:48;9.07;;;2.13;;
19436;SDS011;9854;50.968;4.168;2024-03-02T10:13:13;7.55;;;1.90;;
19436;SDS011;9854;50.968;4.168;2024-03-02T10:15:39;7.57;;;2.35;;
19436;SDS011;9854;50.968;4.168;2024-03-02T10:18:09;7.78;;;2.22;;
19436;SDS011;9854;50.968;4.168;2024-03-02T10:20:41;8.70;;;2.20;;
19436;SDS011;9854;50.968;4.168;2024-03-02T10:25:39;13.30;;;2.45;;
19436;SDS011;9854;50.968;4.168;2024-03-02T10:28:06;11.38;;;2.55;;
19436;SDS011;9854;50.968;4.168;2024-03-02T10:30:32;10.27;;;2.30;;
19436;SDS011;9854;50.968;4.168;2024-03-02T10:33:01;9.90;;;2.08;;
19436;SDS011;9854;50.968;4.168;2024-03-02T10:35:27;8.35;;;1.90;;
19436;SDS011;9854;50.968;4.168;2024-03-02T10:38:01;7.20;;;2.28;;
19436;SDS011;9854;50.968;4.168;2024-03-02T10:40:30;8.30;;;2.55;;
19436;SDS011;9854;50.968;4.168;2024-03-02T10:42:57;7.63;;;2.20;;
19436;SDS011;9854;50.968;4.168;2024-03-02T10:45:26;11.88;;;3.38;;
19436;SDS011;9854;50.968;4.168;2024-03-02T10:47:51;7.93;;;2.55;;
19436;SDS011;9854;50.968;4.168;2024-03-02T10:50:17;7.53;;;1.92;;
19436;SDS011;9854;50.968;4.168;2024-03-02T10:52:43;7.47;;;2.03;;
19436;SDS011;9854;50.968;4.168;2024-03-02T10:55:10;7.93;;;2.40;;
19436;SDS011;9854;50.968;4.168;2024-03-02T10:57:50;12.88;;;2.78;;
19436;SDS011;9854;50.968;4.168;2024-03-02T11:00:17;7.82;;;2.42;;
19436;SDS011;9854;50.968;4.168;2024-03-02T11:02:55;7.53;;;2.13;;
19436;SDS011;9854;50.968;4.168;2024-03-02T11:05:28;15.48;;;3.20;;
19436;SDS011;9854;50.968;4.168;2024-03-02T11:07:57;8.38;;;1.85;;
19436;SDS011;9854;50.968;4.168;2024-03-02T11:10:31;8.77;;;2.00;;
19436;SDS011;9854;50.968;4.168;2024-03-02T11:13:02;8.73;;;1.90;;
19436;SDS011;9854;50.968;4.168;2024-03-02T11:15:33;8.50;;;2.05;;
19436;SDS011;9854;50.968;4.168;2024-03-02T11:18:05;10.85;;;2.00;;
19436;SDS011;9854;50.968;4.168;2024-03-02T11:20:36;14.05;;;2.30;;
19436;SDS011;9854;50.968;4.168;2024-03-02T11:23:07;7.53;;;2.25;;
19436;SDS011;9854;50.968;4.168;2024-03-02T11:25:36;10.15;;;2.30;;
19436;SDS011;9854;50.968;4.168;2024-03-02T11:28:07;7.85;;;2.10;;
19436;SDS011;9854;50.968;4.168;2024-03-02T11:33:04;8.35;;;1.85;;
19436;SDS011;9854;50.968;4.168;2024-03-02T11:35:36;7.20;;;1.90;;
19436;SDS011;9854;50.968;4.168;2024-03-02T11:38:07;6.10;;;1.77;;
19436;SDS011;9854;50.968;4.168;2024-03-02T11:40:36;9.90;;;2.00;;
19436;SDS011;9854;50.968;4.168;2024-03-02T11:43:05;10.73;;;2.25;;
19436;SDS011;9854;50.968;4.168;2024-03-02T11:45:31;10.07;;;2.17;;
19436;SDS011;9854;50.968;4.168;2024-03-02T11:47:58;8.38;;;2.38;;
19436;SDS011;9854;50.968;4.168;2024-03-02T11:53:00;11.18;;;1.60;;
19436;SDS011;9854;50.968;4.168;2024-03-02T11:55:27;9.48;;;2.15;;
19436;SDS011;9854;50.968;4.168;2024-03-02T11:57:54;6.40;;;2.28;;
19436;SDS011;9854;50.968;4.168;2024-03-02T12:00:20;5.85;;;2.20;;
19436;SDS011;9854;50.968;4.168;2024-03-02T12:02:46;8.80;;;2.00;;
19436;SDS011;9854;50.968;4.168;2024-03-02T12:05:24;6.85;;;2.13;;
19436;SDS011;9854;50.968;4.168;2024-03-02T12:07:55;8.80;;;2.25;;
19436;SDS011;9854;50.968;4.168;2024-03-02T12:10:25;7.15;;;1.90;;
19436;SDS011;9854;50.968;4.168;2024-03-02T12:12:57;6.95;;;1.75;;
19436;SDS011;9854;50.968;4.168;2024-03-02T12:15:24;6.68;;;1.80;;
19436;SDS011;9854;50.968;4.168;2024-03-02T12:17:57;8.65;;;1.75;;
19436;SDS011;9854;50.968;4.168;2024-03-02T12:20:24;8.13;;;2.00;;
19436;SDS011;9854;50.968;4.168;2024-03-02T12:22:57;5.78;;;1.80;;
19436;SDS011;9854;50.968;4.168;2024-03-02T12:25:24;9.68;;;1.88;;
19436;SDS011;9854;50.968;4.168;2024-03-02T12:27:54;6.97;;;1.85;;
19436;SDS011;9854;50.968;4.168;2024-03-02T12:30:23;7.30;;;1.67;;
19436;SDS011;9854;50.968;4.168;2024-03-02T12:32:49;6.90;;;2.00;;
19436;SDS011;9854;50.968;4.168;2024-03-02T12:35:15;8.25;;;1.85;;
19436;SDS011;9854;50.968;4.168;2024-03-02T12:40:10;8.82;;;2.00;;
19436;SDS011;9854;50.968;4.168;2024-03-02T12:42:37;9.13;;;1.85;;
19436;SDS011;9854;50.968;4.168;2024-03-02T12:45:04;10.38;;;1.80;;
19436;SDS011;9854;50.968;4.168;2024-03-02T12:47:33;7.28;;;1.85;;
19436;SDS011;9854;50.968;4.168;2024-03-02T12:49:59;5.45;;;1.60;;
19436;SDS011;9854;50.968;4.168;2024-03-02T12:52:25;6.05;;;1.63;;
19436;SDS011;9854;50.968;4.168;2024-03-02T12:54:51;6.85;;;1.75;;
19436;SDS011;9854;50.968;4.168;2024-03-02T12:57:20;4.25;;;1.27;;
19436;SDS011;9854;50.968;4.168;2024-03-02T12:59:48;4.50;;;1.30;;
19436;SDS011;9854;50.968;4.168;2024-03-02T13:02:17;4.65;;;1.60;;
19436;SDS011;9854;50.968;4.168;2024-03-02T13:04:52;3.75;;;1.35;;
19436;SDS011;9854;50.968;4.168;2024-03-02T13:07:24;3.65;;;1.17;;
19436;SDS011;9854;50.968;4.168;2024-03-02T13:09:51;6.03;;;1.30;;
19436;SDS011;9854;50.968;4.168;2024-03-02T13:12:17;4.38;;;1.20;;
19436;SDS011;9854;50.968;4.168;2024-03-02T13:14:44;3.20;;;1.20;;
19436;SDS011;9854;50.968;4.168;2024-03-02T13:17:13;4.35;;;1.23;;
19436;SDS011;9854;50.968;4.168;2024-03-02T13:19:43;4.18;;;1.27;;
19436;SDS011;9854;50.968;4.168;2024-03-02T13:22:19;5.43;;;1.10;;
19436;SDS011;9854;50.968;4.168;2024-03-02T13:24:45;4.90;;;1.30;;
19436;SDS011;9854;50.968;4.168;2024-03-02T13:27:10;7.22;;;1.80;;
19436;SDS011;9854;50.968;4.168;2024-03-02T13:29:36;4.45;;;1.50;;
19436;SDS011;9854;50.968;4.168;2024-03-02T13:32:02;4.07;;;1.20;;
19436;SDS011;9854;50.968;4.168;2024-03-02T13:34:28;4.15;;;1.33;;
19436;SDS011;9854;50.968;4.168;2024-03-02T13:36:57;3.92;;;1.40;;
19436;SDS011;9854;50.968;4.168;2024-03-02T13:39:22;4.65;;;1.48;;
19436;SDS011;9854;50.968;4.168;2024-03-02T13:41:48;3.83;;;1.10;;
19436;SDS011;9854;50.968;4.168;2024-03-02T13:44:23;3.25;;;1.35;;
19436;SDS011;9854;50.968;4.168;2024-03-02T13:46:49;2.75;;;1.38;;
19436;SDS011;9854;50.968;4.168;2024-03-02T13:49:16;2.97;;;1.20;;
19436;SDS011;9854;50.968;4.168;2024-03-02T13:51:42;3.15;;;1.30;;
19436;SDS011;9854;50.968;4.168;2024-03-02T13:54:08;3.17;;;1.50;;
19436;SDS011;9854;50.968;4.168;2024-03-02T13:56:33;5.25;;;1.58;;
19436;SDS011;9854;50.968;4.168;2024-03-02T13:58:59;6.85;;;1.33;;
19436;SDS011;9854;50.968;4.168;2024-03-02T14:01:27;3.90;;;1.33;;
19436;SDS011;9854;50.968;4.168;2024-03-02T14:03:53;3.13;;;1.40;;
19436;SDS011;9854;50.968;4.168;2024-03-02T14:06:19;13.38;;;1.70;;
19436;SDS011;9854;50.968;4.168;2024-03-02T14:08:47;5.60;;;1.50;;
19436;SDS011;9854;50.968;4.168;2024-03-02T14:11:13;6.47;;;1.50;;
19436;SDS011;9854;50.968;4.168;2024-03-02T14:13:43;2.42;;;1.20;;
19436;SDS011;9854;50.968;4.168;2024-03-02T14:16:14;2.90;;;1.40;;
19436;SDS011;9854;50.968;4.168;2024-03-02T14:18:42;5.20;;;1.10;;
19436;SDS011;9854;50.968;4.168;2024-03-02T14:21:10;4.05;;;1.52;;
19436;SDS011;9854;50.968;4.168;2024-03-02T14:23:36;2.60;;;1.50;;
19436;SDS011;9854;50.968;4.168;2024-03-02T14:26:02;3.45;;;1.58;;
19436;SDS011;9854;50.968;4.168;2024-03-02T14:28:30;3.88;;;1.50;;
19436;SDS011;9854;50.968;4.168;2024-03-02T14:30:56;5.47;;;1.85;;
19436;SDS011;9854;50.968;4.168;2024-03-02T14:33:21;3.72;;;1.48;;
19436;SDS011;9854;50.968;4.168;2024-03-02T14:35:47;3.35;;;1.23;;
19436;SDS011;9854;50.968;4.168;2024-03-02T14:38:13;4.57;;;1.30;;
19436;SDS011;9854;50.968;4.168;2024-03-02T14:40:38;4.90;;;1.70;;
19436;SDS011;9854;50.968;4.168;2024-03-02T14:43:04;2.05;;;0.98;;
19436;SDS011;9854;50.968;4.168;2024-03-02T14:45:30;4.93;;;1.10;;
19436;SDS011;9854;50.968;4.168;2024-03-02T14:47:57;2.70;;;1.10;;
19436;SDS011;9854;50.968;4.168;2024-03-02T14:50:27;4.60;;;1.50;;
19436;SDS011;9854;50.968;4.168;2024-03-02T14:52:52;2.25;;;1.00;;
19436;SDS011;9854;50.968;4.168;2024-03-02T14:55:18;2.13;;;0.95;;
19436;SDS011;9854;50.968;4.168;2024-03-02T14:57:44;5.57;;;1.40;;
19436;SDS011;9854;50.968;4.168;2024-03-02T15:00:10;3.20;;;0.98;;
19436;SDS011;9854;50.968;4.168;2024-03-02T15:02:36;3.38;;;1.20;;
19436;SDS011;9854;50.968;4.168;2024-03-02T15:05:03;3.65;;;1.25;;
19436;SDS011;9854;50.968;4.168;2024-03-02T15:07:30;3.45;;;1.25;;
19436;SDS011;9854;50.968;4.168;2024-03-02T15:09:56;2.88;;;1.15;;
19436;SDS011;9854;50.968;4.168;2024-03-02T15:12:22;3.00;;;1.45;;